Profile

Join date: Jul 5, 2022

About




Cheap car rentals at Batchley Farm Airstrip



Best car hire Batchley Farm Airstrip:


Vip- Ad ! . ! 24/7 21


Locations in Hordle (Hampshire)



Search The Phone Book from BT to find contact details of businesses across the UK. Taxis Nearby in Hordle. Planning an vacation in Hordle ,SO41 0FQ. Looking for local, reliable, economical and efficient taxi company ? Minicab Airport Transfer are specialists in all long. Hordle Holiday Packages. Want to book a holiday to Hordle? Whether you're off for a romantic holiday, family trip, or an all-inclusive holiday, Hordle holiday packages on Tripadvisor make.


Where can I rent a car at Batchley Farm Airstrip?



METAR EGDY 110950Z AUTO 23008KT 9999 FEW032/// BKN042/// 18/11 Q1022 REDZ. The wind is from direction 230° with a speed of 8 kt. Visibility is 6¼ mi or more. The. METAR EGVO 101350Z AUTO 09004KT 9999 SCT014/// BKN100/// 18/13 Q1015 RERA. The wind is from direction east with a speed of 4 kt. Visibility is 6¼ mi or more. The ceiling, broken or. Flight Departure information for Batchley Farm Airstrip Airport (AG12583) located in Hordle (Hampshire), England, United Kingdom. Includes airline, flight number, origin airport,.

Batchley Farm Airstrip in Hordle (Hampshire) Car Rental Deals

Batchley Farm Airstrip in Hordle (Hampshire) Car Rental Deals

More actions